createdAt,value
2023-04-08T00:00:53.220Z,102053.47
2023-04-08T00:03:21.736Z,102052.88
2023-04-08T00:05:48.934Z,102067.84
2023-04-08T00:08:15.877Z,102059.41
2023-04-08T00:10:42.797Z,102064.47
2023-04-08T00:13:10.476Z,102061.19
2023-04-08T00:15:37.888Z,102058.53
2023-04-08T00:18:04.921Z,102056.59
2023-04-08T00:20:31.966Z,102053.38
2023-04-08T00:22:58.855Z,102053.81
2023-04-08T00:25:26.119Z,102066.69
2023-04-08T00:27:53.086Z,102054.25
2023-04-08T00:30:20.262Z,102052.78
2023-04-08T00:32:47.508Z,102058.25
2023-04-08T00:35:14.527Z,102059.81
2023-04-08T00:37:41.607Z,102066.78
2023-04-08T00:40:09.245Z,102063.50
2023-04-08T00:42:36.695Z,102050.28
2023-04-08T00:45:04.110Z,102052.19
2023-04-08T00:47:31.386Z,102060.03
2023-04-08T00:49:58.458Z,102060.56
2023-04-08T00:52:25.404Z,102071.19
2023-04-08T00:54:52.415Z,102073.25
2023-04-08T00:57:19.493Z,102065.91
2023-04-08T00:59:46.478Z,102071.53
2023-04-08T01:02:32.408Z,102061.59
2023-04-08T01:05:18.429Z,102066.53
2023-04-08T01:07:49.061Z,102057.63
2023-04-08T01:10:22.855Z,102058.53
2023-04-08T01:12:56.389Z,102061.53
2023-04-08T01:15:26.476Z,102062.94
2023-04-08T01:17:56.013Z,102065.00
2023-04-08T01:20:25.932Z,102059.16
2023-04-08T01:23:03.751Z,102059.91
2023-04-08T01:25:32.759Z,102064.22
2023-04-08T01:28:04.799Z,102064.00
2023-04-08T01:30:34.624Z,102056.00
2023-04-08T01:33:04.161Z,102063.47
2023-04-08T01:35:32.271Z,102056.81
2023-04-08T01:38:01.349Z,102080.31
2023-04-08T01:40:28.446Z,102068.84
2023-04-08T01:42:58.540Z,102064.50
2023-04-08T01:45:26.298Z,102087.03
2023-04-08T01:47:53.857Z,102066.50
2023-04-08T01:50:22.569Z,102054.56
2023-04-08T01:52:53.726Z,102066.03
2023-04-08T01:55:21.406Z,102075.31
2023-04-08T01:57:51.517Z,102075.84
2023-04-08T02:00:30.134Z,102072.66
2023-04-08T02:02:59.179Z,102069.97
2023-04-08T02:05:26.586Z,102068.69
2023-04-08T02:07:53.803Z,102062.53
2023-04-08T02:10:21.152Z,102076.84
2023-04-08T02:12:48.300Z,102078.59
2023-04-08T02:15:15.748Z,102079.03
2023-04-08T02:17:52.642Z,102072.09
2023-04-08T02:20:31.664Z,102070.72
2023-04-08T02:23:25.113Z,102080.91
2023-04-08T02:25:55.970Z,102086.09
2023-04-08T02:28:23.877Z,102074.06
2023-04-08T02:30:53.108Z,102082.59
2023-04-08T02:33:23.276Z,102083.94
2023-04-08T02:35:55.066Z,102069.94
2023-04-08T02:38:24.042Z,102068.47
2023-04-08T02:40:51.470Z,102071.75
2023-04-08T02:43:18.650Z,102065.66
2023-04-08T02:45:46.452Z,102079.53
2023-04-08T02:48:13.559Z,102079.06
2023-04-08T02:50:41.179Z,102073.22
2023-04-08T02:53:09.303Z,102085.91
2023-04-08T02:55:36.325Z,102084.88
2023-04-08T02:58:03.485Z,102081.63
2023-04-08T03:00:30.920Z,102080.28
2023-04-08T03:02:58.074Z,102091.31
2023-04-08T03:05:27.027Z,102087.53
2023-04-08T03:07:54.059Z,102093.66
2023-04-08T03:10:21.151Z,102098.66
2023-04-08T03:12:48.217Z,102105.31
2023-04-08T03:15:15.249Z,102091.84
2023-04-08T03:17:42.277Z,102102.75
2023-04-08T03:20:09.905Z,102097.78
2023-04-08T03:22:37.521Z,102100.41
2023-04-08T03:25:04.965Z,102106.31
2023-04-08T03:27:32.065Z,102114.88
2023-04-08T03:29:59.121Z,102101.78
2023-04-08T03:32:26.228Z,102108.59
2023-04-08T03:34:53.610Z,102111.22
2023-04-08T03:37:20.788Z,102111.97
2023-04-08T03:39:47.729Z,102106.53
2023-04-08T03:42:14.924Z,102113.63
2023-04-08T03:44:41.962Z,102103.63
2023-04-08T03:47:08.970Z,102116.16
2023-04-08T03:49:36.506Z,102108.38
2023-04-08T03:52:03.588Z,102118.81
2023-04-08T03:54:30.795Z,102118.59
2023-04-08T03:56:57.805Z,102113.47
2023-04-08T03:59:25.081Z,102107.75
2023-04-08T04:01:53.636Z,102125.34
2023-04-08T04:04:21.396Z,102113.72
2023-04-08T04:06:48.870Z,102107.69
2023-04-08T04:09:16.813Z,102105.28
2023-04-08T04:11:43.800Z,102115.13
2023-04-08T04:14:10.855Z,102100.34
2023-04-08T04:16:37.786Z,102108.56
2023-04-08T04:19:04.907Z,102103.97
2023-04-08T04:21:31.874Z,102109.56
2023-04-08T04:23:58.747Z,102100.00
2023-04-08T04:26:26.010Z,102107.59
2023-04-08T04:28:53.154Z,102107.59
2023-04-08T04:31:27.659Z,102110.22
2023-04-08T04:33:55.132Z,102113.38
2023-04-08T04:36:22.107Z,102119.91
2023-04-08T04:38:50.841Z,102107.72
2023-04-08T04:41:18.298Z,102109.06
2023-04-08T04:43:46.058Z,102115.88
2023-04-08T04:46:13.100Z,102109.69
2023-04-08T04:48:40.672Z,102119.91
2023-04-08T04:51:09.974Z,102115.28
2023-04-08T04:53:37.054Z,102114.41
2023-04-08T04:56:04.303Z,102129.34
2023-04-08T04:58:31.772Z,102115.47
2023-04-08T05:00:58.921Z,102129.47
2023-04-08T05:03:26.146Z,102115.03
2023-04-08T05:05:56.471Z,102121.47
2023-04-08T05:08:24.136Z,102123.59
2023-04-08T05:10:52.242Z,102129.34
2023-04-08T05:13:19.391Z,102121.13
2023-04-08T05:15:46.690Z,102138.34
2023-04-08T05:18:14.188Z,102138.25
2023-04-08T05:20:41.230Z,102142.63
2023-04-08T05:23:08.751Z,102149.56
2023-04-08T05:25:36.184Z,102154.28
2023-04-08T05:28:04.407Z,102152.94
2023-04-08T05:30:31.499Z,102155.41
2023-04-08T05:33:00.331Z,102161.16
2023-04-08T05:35:28.802Z,102163.59
2023-04-08T05:37:56.046Z,102159.22
2023-04-08T05:40:23.066Z,102175.09
2023-04-08T05:42:50.255Z,102172.06
2023-04-08T05:45:17.354Z,102175.97
2023-04-08T05:47:44.368Z,102174.59
2023-04-08T05:50:11.961Z,102177.63
2023-04-08T05:52:46.518Z,102179.94
2023-04-08T05:55:14.697Z,102192.22
2023-04-08T05:57:42.109Z,102186.97
2023-04-08T06:00:11.187Z,102183.50
2023-04-08T06:02:38.745Z,102183.91
2023-04-08T06:05:06.850Z,102196.09
2023-04-08T06:07:34.576Z,102196.00
2023-04-08T06:10:02.231Z,102198.13
2023-04-08T06:12:29.589Z,102195.56
2023-04-08T06:14:57.087Z,102198.72
2023-04-08T06:17:25.013Z,102205.00
2023-04-08T06:19:52.133Z,102214.84
2023-04-08T06:22:19.086Z,102209.00
2023-04-08T06:24:50.495Z,102212.44
2023-04-08T06:27:17.463Z,102213.97
2023-04-08T06:29:44.587Z,102211.97
2023-04-08T06:32:11.639Z,102220.59
2023-04-08T06:34:38.637Z,102218.03
2023-04-08T06:37:06.467Z,102227.34
2023-04-08T06:39:33.913Z,102218.28
2023-04-08T06:42:00.845Z,102221.91
2023-04-08T06:44:34.725Z,102218.16
2023-04-08T06:47:02.430Z,102226.59
2023-04-08T06:49:30.354Z,102227.63
2023-04-08T06:51:57.894Z,102226.00
2023-04-08T06:54:25.850Z,102226.06
2023-04-08T06:56:53.278Z,102226.66
2023-04-08T06:59:20.414Z,102230.28
2023-04-08T07:01:47.503Z,102242.72
2023-04-08T07:04:14.503Z,102241.75
2023-04-08T07:06:41.622Z,102227.97
2023-04-08T07:09:09.131Z,102230.13
2023-04-08T07:11:36.187Z,102235.03
2023-04-08T07:14:03.105Z,102253.84
2023-04-08T07:16:30.107Z,102238.22
2023-04-08T07:18:57.981Z,102242.22
2023-04-08T07:21:24.947Z,102239.50
2023-04-08T07:23:51.842Z,102247.50
2023-04-08T07:26:18.781Z,102244.53
2023-04-08T07:28:45.865Z,102262.91
2023-04-08T07:31:17.725Z,102253.25
2023-04-08T07:33:46.286Z,102267.63
2023-04-08T07:36:15.239Z,102266.50
2023-04-08T07:38:42.219Z,102271.03
2023-04-08T07:41:09.217Z,102275.81
2023-04-08T07:43:37.412Z,102263.41
2023-04-08T07:46:07.694Z,102267.38
2023-04-08T07:48:35.937Z,102269.81
2023-04-08T07:51:11.331Z,102268.44
2023-04-08T07:53:40.295Z,102275.94
2023-04-08T07:56:19.609Z,102291.91
2023-04-08T07:58:47.107Z,102285.91
2023-04-08T08:01:23.215Z,102291.47
2023-04-08T08:03:52.409Z,102277.72
2023-04-08T08:06:20.823Z,102279.06
2023-04-08T08:08:56.758Z,102276.88
2023-04-08T08:11:30.057Z,102284.63
2023-04-08T08:13:57.199Z,102291.31
2023-04-08T08:16:27.351Z,102275.94
2023-04-08T08:18:54.483Z,102278.56
2023-04-08T08:21:21.486Z,102287.88
2023-04-08T08:23:48.597Z,102292.34
2023-04-08T08:26:15.987Z,102282.06
2023-04-08T08:28:43.118Z,102279.03
2023-04-08T08:31:10.248Z,102279.78
2023-04-08T08:33:37.280Z,102289.69
2023-04-08T08:36:07.728Z,102293.34
2023-04-08T08:38:34.730Z,102301.53
2023-04-08T08:41:04.113Z,102290.75
2023-04-08T08:43:33.696Z,102288.34
2023-04-08T08:46:00.802Z,102297.38
2023-04-08T08:48:28.197Z,102290.94
2023-04-08T08:50:55.296Z,102293.44
2023-04-08T08:53:23.380Z,102305.47
2023-04-08T08:56:16.231Z,102291.06
2023-04-08T08:58:39.372Z,102290.53
2023-04-08T09:01:35.256Z,102294.88
2023-04-08T09:04:18.475Z,102299.00
2023-04-08T09:06:48.835Z,102294.22
2023-04-08T09:09:16.000Z,102308.00
2023-04-08T09:11:47.772Z,102305.56
2023-04-08T09:14:33.198Z,102299.22
2023-04-08T09:17:00.134Z,102299.34
2023-04-08T09:19:27.021Z,102313.38
2023-04-08T09:22:13.155Z,102314.19
2023-04-08T09:24:40.745Z,102305.13
2023-04-08T09:27:07.750Z,102315.97
2023-04-08T09:29:38.229Z,102320.47
2023-04-08T09:32:06.301Z,102319.38
2023-04-08T09:34:34.289Z,102314.06
2023-04-08T09:37:01.989Z,102312.81
2023-04-08T09:39:28.958Z,102316.00
2023-04-08T09:42:01.356Z,102320.09
2023-04-08T09:44:31.304Z,102321.69
2023-04-08T09:47:27.413Z,102313.28
2023-04-08T09:50:04.115Z,102312.91
2023-04-08T09:52:44.961Z,102308.56
2023-04-08T09:55:14.551Z,102313.47
2023-04-08T09:57:59.927Z,102314.19
2023-04-08T10:00:39.061Z,102304.81
2023-04-08T10:03:48.326Z,102318.69
2023-04-08T10:06:16.932Z,102311.97
2023-04-08T10:08:44.972Z,102316.28
2023-04-08T10:11:12.289Z,102321.25
2023-04-08T10:13:39.352Z,102325.75
2023-04-08T10:16:27.677Z,102320.56
2023-04-08T10:18:58.525Z,102312.66
2023-04-08T10:21:51.002Z,102316.41
2023-04-08T10:24:19.099Z,102310.69
2023-04-08T10:26:46.301Z,102307.03
2023-04-08T10:29:19.462Z,102311.72
2023-04-08T10:31:53.125Z,102308.06
2023-04-08T10:34:26.811Z,102307.69
2023-04-08T10:36:56.981Z,102300.97
2023-04-08T10:39:26.442Z,102310.78
2023-04-08T10:41:53.527Z,102309.44
2023-04-08T10:44:27.257Z,102300.97
2023-04-08T10:46:55.767Z,102306.59
2023-04-08T10:49:22.872Z,102298.38
2023-04-08T10:51:50.021Z,102302.69
2023-04-08T10:54:18.951Z,102306.50
2023-04-08T10:56:51.110Z,102302.31
2023-04-08T10:59:28.160Z,102303.16
2023-04-08T11:01:55.616Z,102307.56
2023-04-08T11:04:25.835Z,102296.94
2023-04-08T11:06:53.688Z,102310.03
2023-04-08T11:09:21.041Z,102302.06
2023-04-08T11:11:47.964Z,102315.59
2023-04-08T11:14:15.611Z,102304.19
2023-04-08T11:16:43.106Z,102304.09
2023-04-08T11:19:10.097Z,102300.59
2023-04-08T11:21:38.662Z,102302.13
2023-04-08T11:24:13.369Z,102300.31
2023-04-08T11:26:41.532Z,102296.41
2023-04-08T11:29:15.203Z,102306.22
2023-04-08T11:31:44.090Z,102299.44
2023-04-08T11:34:11.431Z,102295.78
2023-04-08T11:36:41.969Z,102288.16
2023-04-08T11:39:12.318Z,102296.94
2023-04-08T11:41:40.651Z,102297.03
2023-04-08T11:44:08.315Z,102302.63
2023-04-08T11:46:36.224Z,102290.69
2023-04-08T11:49:08.891Z,102310.31
2023-04-08T11:51:57.784Z,102296.63
2023-04-08T11:54:33.117Z,102301.53
2023-04-08T11:57:01.171Z,102289.69
2023-04-08T11:59:29.491Z,102303.69
2023-04-08T12:01:57.334Z,102300.41
2023-04-08T12:04:24.527Z,102294.66
2023-04-08T12:06:52.455Z,102299.78
2023-04-08T12:09:19.804Z,102303.34
2023-04-08T12:11:46.803Z,102300.00
2023-04-08T12:14:14.341Z,102298.16
2023-04-08T12:16:41.315Z,102297.13
2023-04-08T12:19:08.287Z,102287.78
2023-04-08T12:21:35.319Z,102297.97
2023-04-08T12:24:02.335Z,102291.31
2023-04-08T12:26:29.269Z,102289.34
2023-04-08T12:28:56.175Z,102282.00
2023-04-08T12:31:23.510Z,102285.00
2023-04-08T12:33:50.761Z,102282.75
2023-04-08T12:36:17.922Z,102285.97
2023-04-08T12:38:44.942Z,102280.22
2023-04-08T12:41:11.873Z,102277.84
2023-04-08T12:43:39.380Z,102276.72
2023-04-08T12:46:06.414Z,102284.31
2023-04-08T12:48:33.500Z,102277.63
2023-04-08T12:51:00.413Z,102273.22
2023-04-08T12:53:27.613Z,102276.41
2023-04-08T12:55:57.310Z,102284.13
2023-04-08T12:58:25.641Z,102279.97
2023-04-08T13:00:52.662Z,102280.09
2023-04-08T13:03:19.873Z,102277.88
2023-04-08T13:05:46.989Z,102280.81
2023-04-08T13:08:13.890Z,102278.84
2023-04-08T13:10:42.906Z,102270.16
2023-04-08T13:13:09.891Z,102261.44
2023-04-08T13:15:36.938Z,102271.69
2023-04-08T13:18:04.733Z,102260.56
2023-04-08T13:20:31.850Z,102263.84
2023-04-08T13:22:58.820Z,102264.13
2023-04-08T13:25:25.743Z,102263.47
2023-04-08T13:27:52.747Z,102260.59
2023-04-08T13:30:19.784Z,102265.94
2023-04-08T13:32:46.757Z,102274.28
2023-04-08T13:35:13.967Z,102283.13
2023-04-08T13:37:40.953Z,102262.13
2023-04-08T13:40:09.840Z,102268.38
2023-04-08T13:42:37.474Z,102264.72
2023-04-08T13:45:04.953Z,102267.28
2023-04-08T13:47:32.277Z,102266.53
2023-04-08T13:49:59.263Z,102263.44
2023-04-08T13:52:26.332Z,102263.56
2023-04-08T13:54:53.300Z,102261.06
2023-04-08T13:57:20.330Z,102254.72
2023-04-08T13:59:47.779Z,102256.22
2023-04-08T14:02:14.789Z,102263.31
2023-04-08T14:04:42.258Z,102248.44
2023-04-08T14:07:09.673Z,102257.38
2023-04-08T14:09:36.999Z,102243.69
2023-04-08T14:12:04.067Z,102257.06
2023-04-08T14:14:31.288Z,102246.28
2023-04-08T14:16:58.334Z,102244.66
2023-04-08T14:19:25.432Z,102242.06
2023-04-08T14:21:52.333Z,102254.09
2023-04-08T14:24:19.419Z,102238.03
2023-04-08T14:26:46.396Z,102239.59
2023-04-08T14:29:13.402Z,102238.91
2023-04-08T14:31:40.384Z,102250.88
2023-04-08T14:34:07.320Z,102234.50
2023-04-08T14:36:34.208Z,102232.00
2023-04-08T14:39:01.515Z,102236.22
2023-04-08T14:41:28.400Z,102239.06
2023-04-08T14:43:55.644Z,102229.94
2023-04-08T14:46:22.738Z,102228.81
2023-04-08T14:48:50.025Z,102235.56
2023-04-08T14:51:17.221Z,102226.91
2023-04-08T14:53:44.213Z,102235.44
2023-04-08T14:56:11.407Z,102245.19
2023-04-08T14:58:38.376Z,102230.16
2023-04-08T15:01:05.549Z,102232.13
2023-04-08T15:03:33.767Z,102232.84
2023-04-08T15:06:01.354Z,102237.84
2023-04-08T15:08:28.614Z,102228.97
2023-04-08T15:10:55.754Z,102234.06
2023-04-08T15:13:23.123Z,102229.56
2023-04-08T15:15:50.482Z,102230.38
2023-04-08T15:18:17.478Z,102219.16
2023-04-08T15:20:44.427Z,102221.88
2023-04-08T15:23:11.696Z,102220.09
2023-04-08T15:25:38.674Z,102213.06
2023-04-08T15:28:05.716Z,102217.47
2023-04-08T15:30:35.578Z,102220.75
2023-04-08T15:33:05.866Z,102222.41
2023-04-08T15:35:33.086Z,102218.63
2023-04-08T15:38:00.825Z,102214.00
2023-04-08T15:40:28.200Z,102217.88
2023-04-08T15:42:55.136Z,102220.75
2023-04-08T15:45:22.273Z,102213.75
2023-04-08T15:47:49.287Z,102217.50
2023-04-08T15:50:17.533Z,102219.19
2023-04-08T15:52:44.943Z,102213.38
2023-04-08T15:55:12.017Z,102217.06
2023-04-08T15:57:39.161Z,102213.19
2023-04-08T16:00:11.253Z,102213.72
2023-04-08T16:02:38.612Z,102216.09
2023-04-08T16:05:06.349Z,102214.53
2023-04-08T16:07:33.259Z,102212.22
2023-04-08T16:10:00.243Z,102208.97
2023-04-08T16:12:27.286Z,102207.03
2023-04-08T16:14:54.359Z,102204.13
2023-04-08T16:17:21.981Z,102210.25
2023-04-08T16:19:50.558Z,102216.31
2023-04-08T16:22:17.978Z,102209.28
2023-04-08T16:24:45.026Z,102204.16
2023-04-08T16:27:11.961Z,102198.47
2023-04-08T16:29:38.957Z,102201.66
2023-04-08T16:32:06.536Z,102210.84
2023-04-08T16:34:34.542Z,102210.66
2023-04-08T16:37:01.905Z,102199.50
2023-04-08T16:39:28.869Z,102199.88
2023-04-08T16:41:55.939Z,102201.94
2023-04-08T16:44:22.841Z,102196.50
2023-04-08T16:46:49.777Z,102200.63
2023-04-08T16:49:18.275Z,102208.94
2023-04-08T16:51:45.423Z,102205.69
2023-04-08T16:54:12.358Z,102203.22
2023-04-08T16:56:44.307Z,102203.22
2023-04-08T16:59:12.974Z,102205.28
2023-04-08T17:01:40.057Z,102206.69
2023-04-08T17:04:07.172Z,102205.50
2023-04-08T17:06:37.699Z,102210.00
2023-04-08T17:09:04.786Z,102207.41
2023-04-08T17:11:31.753Z,102218.78
2023-04-08T17:13:59.592Z,102203.38
2023-04-08T17:16:26.582Z,102221.72
2023-04-08T17:18:53.621Z,102219.66
2023-04-08T17:21:20.558Z,102206.44
2023-04-08T17:23:47.543Z,102207.97
2023-04-08T17:26:14.640Z,102217.84
2023-04-08T17:28:42.108Z,102205.91
2023-04-08T17:31:10.632Z,102207.31
2023-04-08T17:33:37.703Z,102216.91
2023-04-08T17:36:05.136Z,102218.47
2023-04-08T17:38:32.590Z,102222.97
2023-04-08T17:40:59.543Z,102223.38
2023-04-08T17:43:26.449Z,102216.41
2023-04-08T17:45:53.523Z,102213.94
2023-04-08T17:48:20.642Z,102224.81
2023-04-08T17:50:47.638Z,102215.34
2023-04-08T17:53:14.527Z,102218.22
2023-04-08T17:55:41.879Z,102211.03
2023-04-08T17:58:08.950Z,102228.75
2023-04-08T18:00:35.961Z,102231.59
2023-04-08T18:03:03.051Z,102230.84
2023-04-08T18:05:30.208Z,102222.91
2023-04-08T18:07:58.513Z,102225.38
2023-04-08T18:10:25.562Z,102231.34
2023-04-08T18:13:00.599Z,102221.91
2023-04-08T18:15:36.211Z,102233.28
2023-04-08T18:18:03.841Z,102234.19
2023-04-08T18:20:30.799Z,102231.78
2023-04-08T18:23:00.235Z,102233.69
2023-04-08T18:25:27.451Z,102233.28
2023-04-08T18:27:54.377Z,102233.03
2023-04-08T18:30:23.784Z,102232.47
2023-04-08T18:32:51.056Z,102238.53
2023-04-08T18:35:18.626Z,102237.75
2023-04-08T18:37:48.312Z,102234.94
2023-04-08T18:40:15.561Z,102248.47
2023-04-08T18:42:45.541Z,102251.53
2023-04-08T18:45:12.653Z,102247.97
2023-04-08T18:47:39.630Z,102250.41
2023-04-08T18:50:07.796Z,102254.41
2023-04-08T18:52:34.874Z,102258.13
2023-04-08T18:55:02.760Z,102248.69
2023-04-08T18:57:29.814Z,102258.63
2023-04-08T18:59:56.764Z,102267.81
2023-04-08T19:02:23.884Z,102262.66
2023-04-08T19:04:52.097Z,102262.50
2023-04-08T19:07:19.060Z,102268.16
2023-04-08T19:09:46.046Z,102259.06
2023-04-08T19:12:12.998Z,102266.38
2023-04-08T19:14:41.937Z,102269.78
2023-04-08T19:17:09.797Z,102263.50
2023-04-08T19:19:36.831Z,102261.63
2023-04-08T19:22:05.812Z,102265.41
2023-04-08T19:24:33.556Z,102269.50
2023-04-08T19:27:00.727Z,102268.94
2023-04-08T19:29:29.649Z,102272.50
2023-04-08T19:31:57.689Z,102275.94
2023-04-08T19:34:25.261Z,102269.66
2023-04-08T19:36:52.653Z,102279.53
2023-04-08T19:39:19.710Z,102280.84
2023-04-08T19:41:47.112Z,102280.00
2023-04-08T19:44:14.147Z,102283.28
2023-04-08T19:46:41.229Z,102281.56
2023-04-08T19:49:08.214Z,102269.91
2023-04-08T19:51:35.466Z,102287.94
2023-04-08T19:54:02.488Z,102283.34
2023-04-08T19:56:33.995Z,102279.47
2023-04-08T19:59:04.177Z,102290.78
2023-04-08T20:01:31.404Z,102285.28
2023-04-08T20:03:58.448Z,102286.50
2023-04-08T20:06:25.402Z,102284.59
2023-04-08T20:08:53.527Z,102293.22
2023-04-08T20:11:21.120Z,102299.53
2023-04-08T20:13:49.909Z,102298.59
2023-04-08T20:16:16.961Z,102301.94
2023-04-08T20:18:43.959Z,102301.19
2023-04-08T20:21:13.957Z,102298.06
2023-04-08T20:23:44.898Z,102294.97
2023-04-08T20:26:12.980Z,102294.09
2023-04-08T20:28:40.807Z,102292.03
2023-04-08T20:31:09.220Z,102290.13
2023-04-08T20:33:38.245Z,102291.69
2023-04-08T20:36:05.573Z,102282.78
2023-04-08T20:38:35.267Z,102293.81
2023-04-08T20:41:02.646Z,102296.28
2023-04-08T20:43:29.656Z,102291.34
2023-04-08T20:45:56.617Z,102295.69
2023-04-08T20:48:23.668Z,102302.91
2023-04-08T20:50:51.092Z,102292.31
2023-04-08T20:53:19.562Z,102302.69
2023-04-08T20:55:46.608Z,102286.84
2023-04-08T20:58:13.588Z,102290.03
2023-04-08T21:00:40.840Z,102287.44
2023-04-08T21:03:07.902Z,102288.94
2023-04-08T21:05:38.231Z,102286.94
2023-04-08T21:08:06.120Z,102284.84
2023-04-08T21:10:33.084Z,102288.28
2023-04-08T21:13:01.118Z,102285.53
2023-04-08T21:15:28.522Z,102295.50
2023-04-08T21:17:55.680Z,102291.00
2023-04-08T21:20:23.047Z,102296.66
2023-04-08T21:22:50.326Z,102293.19
2023-04-08T21:25:18.102Z,102287.94
2023-04-08T21:27:45.533Z,102286.09
2023-04-08T21:30:12.779Z,102291.06
2023-04-08T21:32:39.920Z,102281.59
2023-04-08T21:35:07.302Z,102276.47
2023-04-08T21:37:34.672Z,102275.81
2023-04-08T21:40:01.631Z,102271.53
2023-04-08T21:42:28.886Z,102277.34
2023-04-08T21:44:55.918Z,102268.06
2023-04-08T21:47:22.895Z,102277.50
2023-04-08T21:49:50.083Z,102271.88
2023-04-08T21:52:17.916Z,102272.44
2023-04-08T21:54:49.578Z,102269.44
2023-04-08T21:57:16.501Z,102275.31
2023-04-08T21:59:43.456Z,102266.91
2023-04-08T22:02:11.758Z,102267.44
2023-04-08T22:04:38.930Z,102265.13
2023-04-08T22:07:06.324Z,102261.69
2023-04-08T22:09:33.362Z,102259.50
2023-04-08T22:12:02.115Z,102259.44
2023-04-08T22:14:29.174Z,102260.13
2023-04-08T22:16:56.274Z,102255.84
2023-04-08T22:19:23.606Z,102262.13
2023-04-08T22:21:51.172Z,102259.31
2023-04-08T22:24:19.438Z,102258.56
2023-04-08T22:26:46.979Z,102261.75
2023-04-08T22:29:14.169Z,102263.78
2023-04-08T22:31:41.302Z,102260.59
2023-04-08T22:34:08.255Z,102260.63
2023-04-08T22:36:35.414Z,102252.84
2023-04-08T22:39:02.319Z,102249.59
2023-04-08T22:41:29.319Z,102252.47
2023-04-08T22:43:58.898Z,102253.03
2023-04-08T22:46:25.926Z,102248.28
2023-04-08T22:48:53.088Z,102235.28
2023-04-08T22:51:20.929Z,102240.44
2023-04-08T22:53:48.002Z,102241.66
2023-04-08T22:56:14.960Z,102232.38
2023-04-08T22:58:42.056Z,102231.97
2023-04-08T23:01:17.351Z,102234.59
2023-04-08T23:03:44.942Z,102244.47
2023-04-08T23:06:12.026Z,102241.84
2023-04-08T23:08:39.062Z,102250.09
2023-04-08T23:11:07.088Z,102226.66
2023-04-08T23:13:34.532Z,102229.81
2023-04-08T23:16:01.603Z,102227.38
2023-04-08T23:18:28.946Z,102232.53
2023-04-08T23:20:57.816Z,102217.03
2023-04-08T23:23:26.097Z,102223.72
2023-04-08T23:25:55.723Z,102236.66
2023-04-08T23:28:23.597Z,102232.25
2023-04-08T23:30:50.727Z,102233.38
2023-04-08T23:33:17.861Z,102231.91
2023-04-08T23:35:44.883Z,102228.44
2023-04-08T23:38:12.003Z,102228.72
2023-04-08T23:40:39.030Z,102223.50
2023-04-08T23:43:06.166Z,102230.75
2023-04-08T23:45:33.210Z,102218.75
2023-04-08T23:48:00.359Z,102222.78
2023-04-08T23:50:27.471Z,102224.53
2023-04-08T23:52:54.472Z,102225.38
2023-04-08T23:55:24.097Z,102217.78
2023-04-08T23:57:54.021Z,102222.19
